sensor_id;sensor_type;location;lat;lon;timestamp;temperature;humidity
69533;DHT22;56729;52.036;5.332;2023-03-01T00:00:00;0.00;93.10
69533;DHT22;56729;52.036;5.332;2023-03-01T00:01:15;0.00;93.10
69533;DHT22;56729;52.036;5.332;2023-03-01T00:02:18;0.00;93.10
69533;DHT22;56729;52.036;5.332;2023-03-01T00:03:20;0.00;93.10
69533;DHT22;56729;52.036;5.332;2023-03-01T00:04:21;0.00;93.10
69533;DHT22;56729;52.036;5.332;2023-03-01T00:05:23;0.00;93.20
69533;DHT22;56729;52.036;5.332;2023-03-01T00:06:26;-0.10;93.40
69533;DHT22;56729;52.036;5.332;2023-03-01T00:07:28;-0.10;93.20
69533;DHT22;56729;52.036;5.332;2023-03-01T00:08:31;-0.10;93.30
69533;DHT22;56729;52.036;5.332;2023-03-01T00:09:36;-0.10;93.30
69533;DHT22;56729;52.036;5.332;2023-03-01T00:10:38;-0.10;93.30
69533;DHT22;56729;52.036;5.332;2023-03-01T00:11:40;-0.10;93.30
69533;DHT22;56729;52.036;5.332;2023-03-01T00:12:42;-0.10;93.40
69533;DHT22;56729;52.036;5.332;2023-03-01T00:13:46;-0.10;93.40
69533;DHT22;56729;52.036;5.332;2023-03-01T00:14:48;-0.10;93.50
69533;DHT22;56729;52.036;5.332;2023-03-01T00:15:50;-0.10;93.50
69533;DHT22;56729;52.036;5.332;2023-03-01T00:16:52;-0.10;93.60
69533;DHT22;56729;52.036;5.332;2023-03-01T00:17:55;-0.10;94.10
69533;DHT22;56729;52.036;5.332;2023-03-01T00:18:57;-0.10;93.70
69533;DHT22;56729;52.036;5.332;2023-03-01T00:19:59;-0.10;93.70
69533;DHT22;56729;52.036;5.332;2023-03-01T00:21:01;-0.10;93.70
69533;DHT22;56729;52.036;5.332;2023-03-01T00:22:02;-0.10;93.70
69533;DHT22;56729;52.036;5.332;2023-03-01T00:23:04;-0.10;93.70
69533;DHT22;56729;52.036;5.332;2023-03-01T00:24:07;-0.10;93.70
69533;DHT22;56729;52.036;5.332;2023-03-01T00:25:09;-0.10;93.70
69533;DHT22;56729;52.036;5.332;2023-03-01T00:26:13;-0.10;93.70
69533;DHT22;56729;52.036;5.332;2023-03-01T00:27:15;-0.10;93.70
69533;DHT22;56729;52.036;5.332;2023-03-01T00:28:18;-0.10;93.70
69533;DHT22;56729;52.036;5.332;2023-03-01T00:29:22;-0.10;93.70
69533;DHT22;56729;52.036;5.332;2023-03-01T00:30:26;-0.10;93.70
69533;DHT22;56729;52.036;5.332;2023-03-01T00:31:30;-0.20;93.70
69533;DHT22;56729;52.036;5.332;2023-03-01T00:32:32;-0.10;93.70
69533;DHT22;56729;52.036;5.332;2023-03-01T00:33:34;-0.10;93.80
69533;DHT22;56729;52.036;5.332;2023-03-01T00:34:35;-0.10;93.80
69533;DHT22;56729;52.036;5.332;2023-03-01T00:35:37;-0.10;93.90
69533;DHT22;56729;52.036;5.332;2023-03-01T00:36:39;-0.20;94.00
69533;DHT22;56729;52.036;5.332;2023-03-01T00:37:41;-0.20;94.00
69533;DHT22;56729;52.036;5.332;2023-03-01T00:38:45;-0.20;94.00
69533;DHT22;56729;52.036;5.332;2023-03-01T00:39:47;-0.20;94.10
69533;DHT22;56729;52.036;5.332;2023-03-01T00:40:49;-0.20;94.10
69533;DHT22;56729;52.036;5.332;2023-03-01T00:41:51;-0.20;94.20
69533;DHT22;56729;52.036;5.332;2023-03-01T00:42:53;-0.20;94.20
69533;DHT22;56729;52.036;5.332;2023-03-01T00:43:56;-0.20;94.20
69533;DHT22;56729;52.036;5.332;2023-03-01T00:44:58;-0.20;94.70
69533;DHT22;56729;52.036;5.332;2023-03-01T00:46:01;-0.20;94.30
69533;DHT22;56729;52.036;5.332;2023-03-01T00:47:03;-0.20;94.30
69533;DHT22;56729;52.036;5.332;2023-03-01T00:48:05;-0.20;94.30
69533;DHT22;56729;52.036;5.332;2023-03-01T00:49:07;-0.20;94.40
69533;DHT22;56729;52.036;5.332;2023-03-01T00:50:10;-0.20;94.40
69533;DHT22;56729;52.036;5.332;2023-03-01T00:51:19;-0.20;94.40
69533;DHT22;56729;52.036;5.332;2023-03-01T00:52:21;-0.20;94.50
69533;DHT22;56729;52.036;5.332;2023-03-01T00:53:23;-0.20;94.40
69533;DHT22;56729;52.036;5.332;2023-03-01T00:54:25;-0.20;94.50
69533;DHT22;56729;52.036;5.332;2023-03-01T00:55:27;-0.20;94.50
69533;DHT22;56729;52.036;5.332;2023-03-01T00:56:29;-0.20;94.50
69533;DHT22;56729;52.036;5.332;2023-03-01T00:57:32;-0.20;94.60
69533;DHT22;56729;52.036;5.332;2023-03-01T00:58:35;-0.30;94.60
69533;DHT22;56729;52.036;5.332;2023-03-01T00:59:37;-0.30;94.60
69533;DHT22;56729;52.036;5.332;2023-03-01T01:00:39;-0.30;94.70
69533;DHT22;56729;52.036;5.332;2023-03-01T01:01:41;-0.30;94.70
69533;DHT22;56729;52.036;5.332;2023-03-01T01:02:43;-0.30;94.80
69533;DHT22;56729;52.036;5.332;2023-03-01T01:03:52;-0.30;94.80
69533;DHT22;56729;52.036;5.332;2023-03-01T01:04:54;-0.30;94.80
69533;DHT22;56729;52.036;5.332;2023-03-01T01:05:57;-0.30;94.80
69533;DHT22;56729;52.036;5.332;2023-03-01T01:06:59;-0.30;94.80
69533;DHT22;56729;52.036;5.332;2023-03-01T01:08:01;-0.30;94.90
69533;DHT22;56729;52.036;5.332;2023-03-01T01:09:05;-0.30;95.00
69533;DHT22;56729;52.036;5.332;2023-03-01T01:10:09;-0.30;95.00
69533;DHT22;56729;52.036;5.332;2023-03-01T01:11:15;-0.30;95.10
69533;DHT22;56729;52.036;5.332;2023-03-01T01:12:17;-0.30;95.10
69533;DHT22;56729;52.036;5.332;2023-03-01T01:13:19;-0.30;95.10
69533;DHT22;56729;52.036;5.332;2023-03-01T01:14:22;-0.30;95.20
69533;DHT22;56729;52.036;5.332;2023-03-01T01:15:24;-0.30;95.20
69533;DHT22;56729;52.036;5.332;2023-03-01T01:16:27;-0.30;95.70
69533;DHT22;56729;52.036;5.332;2023-03-01T01:17:30;-0.30;95.30
69533;DHT22;56729;52.036;5.332;2023-03-01T01:18:32;-0.30;95.30
69533;DHT22;56729;52.036;5.332;2023-03-01T01:19:34;-0.30;95.40
69533;DHT22;56729;52.036;5.332;2023-03-01T01:20:36;-0.30;95.40
69533;DHT22;56729;52.036;5.332;2023-03-01T01:21:40;-0.30;95.40
69533;DHT22;56729;52.036;5.332;2023-03-01T01:22:44;-0.30;95.40
69533;DHT22;56729;52.036;5.332;2023-03-01T01:23:47;-0.30;95.40
69533;DHT22;56729;52.036;5.332;2023-03-01T01:24:49;-0.30;95.40
69533;DHT22;56729;52.036;5.332;2023-03-01T01:25:51;-0.30;95.50
69533;DHT22;56729;52.036;5.332;2023-03-01T01:26:52;-0.30;95.50
69533;DHT22;56729;52.036;5.332;2023-03-01T01:27:54;-0.30;95.50
69533;DHT22;56729;52.036;5.332;2023-03-01T01:28:57;-0.30;95.50
69533;DHT22;56729;52.036;5.332;2023-03-01T01:29:59;-0.30;95.60
69533;DHT22;56729;52.036;5.332;2023-03-01T01:31:01;-0.30;95.60
69533;DHT22;56729;52.036;5.332;2023-03-01T01:32:03;-0.30;95.60
69533;DHT22;56729;52.036;5.332;2023-03-01T01:33:05;-0.30;95.60
69533;DHT22;56729;52.036;5.332;2023-03-01T01:34:08;-0.30;95.70
69533;DHT22;56729;52.036;5.332;2023-03-01T01:35:13;-0.30;95.70
69533;DHT22;56729;52.036;5.332;2023-03-01T01:36:16;-0.30;95.70
69533;DHT22;56729;52.036;5.332;2023-03-01T01:37:18;-0.30;95.70
69533;DHT22;56729;52.036;5.332;2023-03-01T01:38:20;-0.30;95.80
69533;DHT22;56729;52.036;5.332;2023-03-01T01:39:23;-0.30;95.80
69533;DHT22;56729;52.036;5.332;2023-03-01T01:40:25;-0.30;95.80
69533;DHT22;56729;52.036;5.332;2023-03-01T01:41:28;-0.30;95.90
69533;DHT22;56729;52.036;5.332;2023-03-01T01:42:30;-0.30;95.90
69533;DHT22;56729;52.036;5.332;2023-03-01T01:43:38;-0.30;95.90
69533;DHT22;56729;52.036;5.332;2023-03-01T01:44:42;-0.30;95.90
69533;DHT22;56729;52.036;5.332;2023-03-01T01:45:44;-0.30;95.90
69533;DHT22;56729;52.036;5.332;2023-03-01T01:46:53;-0.30;95.90
69533;DHT22;56729;52.036;5.332;2023-03-01T01:48:04;-0.30;96.00
69533;DHT22;56729;52.036;5.332;2023-03-01T01:49:23;-0.30;96.00
69533;DHT22;56729;52.036;5.332;2023-03-01T01:50:26;-0.30;96.10
69533;DHT22;56729;52.036;5.332;2023-03-01T01:51:35;-0.30;96.00
69533;DHT22;56729;52.036;5.332;2023-03-01T01:52:40;-0.40;96.00
69533;DHT22;56729;52.036;5.332;2023-03-01T01:53:45;-0.30;96.10
69533;DHT22;56729;52.036;5.332;2023-03-01T01:55:58;-0.30;96.20
69533;DHT22;56729;52.036;5.332;2023-03-01T01:57:05;-0.40;96.10
69533;DHT22;56729;52.036;5.332;2023-03-01T01:58:11;-0.30;96.20
69533;DHT22;56729;52.036;5.332;2023-03-01T01:59:14;-0.40;96.20
69533;DHT22;56729;52.036;5.332;2023-03-01T02:00:22;-0.40;96.20
69533;DHT22;56729;52.036;5.332;2023-03-01T02:01:25;-0.40;96.20
69533;DHT22;56729;52.036;5.332;2023-03-01T02:02:27;-0.40;96.30
69533;DHT22;56729;52.036;5.332;2023-03-01T02:03:31;-0.40;96.30
69533;DHT22;56729;52.036;5.332;2023-03-01T02:04:39;-0.40;96.40
69533;DHT22;56729;52.036;5.332;2023-03-01T02:05:57;-0.40;96.40
69533;DHT22;56729;52.036;5.332;2023-03-01T02:07:10;-0.40;96.40
69533;DHT22;56729;52.036;5.332;2023-03-01T02:08:18;-0.40;96.40
69533;DHT22;56729;52.036;5.332;2023-03-01T02:09:22;-0.40;96.40
69533;DHT22;56729;52.036;5.332;2023-03-01T02:10:25;-0.50;96.40
69533;DHT22;56729;52.036;5.332;2023-03-01T02:11:30;-0.50;96.40
69533;DHT22;56729;52.036;5.332;2023-03-01T02:12:34;-0.50;96.50
69533;DHT22;56729;52.036;5.332;2023-03-01T02:13:37;-0.50;96.50
69533;DHT22;56729;52.036;5.332;2023-03-01T02:14:39;-0.50;96.60
69533;DHT22;56729;52.036;5.332;2023-03-01T02:15:41;-0.50;96.60
69533;DHT22;56729;52.036;5.332;2023-03-01T02:16:46;-0.50;96.60
69533;DHT22;56729;52.036;5.332;2023-03-01T02:17:48;-0.50;96.70
69533;DHT22;56729;52.036;5.332;2023-03-01T02:18:50;-0.50;96.80
69533;DHT22;56729;52.036;5.332;2023-03-01T02:20:02;-0.50;96.80
69533;DHT22;56729;52.036;5.332;2023-03-01T02:22:30;-0.50;96.90
69533;DHT22;56729;52.036;5.332;2023-03-01T02:23:33;-0.50;96.90
69533;DHT22;56729;52.036;5.332;2023-03-01T02:26:02;-0.60;96.90
69533;DHT22;56729;52.036;5.332;2023-03-01T02:27:06;-0.50;97.00
69533;DHT22;56729;52.036;5.332;2023-03-01T02:29:13;-0.60;97.00
69533;DHT22;56729;52.036;5.332;2023-03-01T02:30:15;-0.50;97.10
69533;DHT22;56729;52.036;5.332;2023-03-01T02:31:19;-0.60;97.10
69533;DHT22;56729;52.036;5.332;2023-03-01T02:32:41;-0.60;97.10
69533;DHT22;56729;52.036;5.332;2023-03-01T02:33:44;-0.60;97.10
69533;DHT22;56729;52.036;5.332;2023-03-01T02:34:48;-0.60;97.20
69533;DHT22;56729;52.036;5.332;2023-03-01T02:35:50;-0.60;97.30
69533;DHT22;56729;52.036;5.332;2023-03-01T02:38:01;-0.60;97.30
69533;DHT22;56729;52.036;5.332;2023-03-01T02:39:09;-0.60;97.40
69533;DHT22;56729;52.036;5.332;2023-03-01T02:40:18;-0.60;97.40
69533;DHT22;56729;52.036;5.332;2023-03-01T02:41:25;-0.60;97.40
69533;DHT22;56729;52.036;5.332;2023-03-01T02:42:37;-0.60;97.50
69533;DHT22;56729;52.036;5.332;2023-03-01T02:43:42;-0.60;97.60
69533;DHT22;56729;52.036;5.332;2023-03-01T02:44:45;-0.60;97.60
69533;DHT22;56729;52.036;5.332;2023-03-01T02:45:51;-0.60;97.60
69533;DHT22;56729;52.036;5.332;2023-03-01T02:46:56;-0.60;97.70
69533;DHT22;56729;52.036;5.332;2023-03-01T02:47:59;-0.60;97.70
69533;DHT22;56729;52.036;5.332;2023-03-01T02:49:01;-0.50;97.70
69533;DHT22;56729;52.036;5.332;2023-03-01T02:50:15;-0.50;97.80
69533;DHT22;56729;52.036;5.332;2023-03-01T02:52:57;-0.50;97.80
69533;DHT22;56729;52.036;5.332;2023-03-01T02:54:25;-0.50;97.80
69533;DHT22;56729;52.036;5.332;2023-03-01T02:55:27;-0.50;97.80
69533;DHT22;56729;52.036;5.332;2023-03-01T02:56:30;-0.50;97.80
69533;DHT22;56729;52.036;5.332;2023-03-01T02:57:34;-0.60;97.80
69533;DHT22;56729;52.036;5.332;2023-03-01T02:58:37;-0.50;97.90
69533;DHT22;56729;52.036;5.332;2023-03-01T02:59:48;-0.60;97.90
69533;DHT22;56729;52.036;5.332;2023-03-01T03:00:51;-0.60;97.90
69533;DHT22;56729;52.036;5.332;2023-03-01T03:01:53;-0.60;98.00
69533;DHT22;56729;52.036;5.332;2023-03-01T03:02:55;-0.60;98.00
69533;DHT22;56729;52.036;5.332;2023-03-01T03:04:00;-0.60;98.10
69533;DHT22;56729;52.036;5.332;2023-03-01T03:05:26;-0.60;98.20
69533;DHT22;56729;52.036;5.332;2023-03-01T03:06:31;-0.60;98.20
69533;DHT22;56729;52.036;5.332;2023-03-01T03:07:34;-0.60;98.10
69533;DHT22;56729;52.036;5.332;2023-03-01T03:08:36;-0.60;98.20
69533;DHT22;56729;52.036;5.332;2023-03-01T03:09:39;-0.60;98.30
69533;DHT22;56729;52.036;5.332;2023-03-01T03:10:42;-0.60;98.30
69533;DHT22;56729;52.036;5.332;2023-03-01T03:11:45;-0.60;98.40
69533;DHT22;56729;52.036;5.332;2023-03-01T03:12:52;-0.60;98.40
69533;DHT22;56729;52.036;5.332;2023-03-01T03:13:54;-0.60;98.50
69533;DHT22;56729;52.036;5.332;2023-03-01T03:14:57;-0.60;98.50
69533;DHT22;56729;52.036;5.332;2023-03-01T03:16:03;-0.60;98.60
69533;DHT22;56729;52.036;5.332;2023-03-01T03:17:07;-0.60;98.60
69533;DHT22;56729;52.036;5.332;2023-03-01T03:18:12;-0.60;98.70
69533;DHT22;56729;52.036;5.332;2023-03-01T03:19:15;-0.60;98.70
69533;DHT22;56729;52.036;5.332;2023-03-01T03:20:20;-0.60;98.70
69533;DHT22;56729;52.036;5.332;2023-03-01T03:21:24;-0.60;98.80
69533;DHT22;56729;52.036;5.332;2023-03-01T03:22:26;-0.60;98.80
69533;DHT22;56729;52.036;5.332;2023-03-01T03:23:30;-0.60;98.90
69533;DHT22;56729;52.036;5.332;2023-03-01T03:24:32;-0.60;98.90
69533;DHT22;56729;52.036;5.332;2023-03-01T03:25:39;-0.60;98.90
69533;DHT22;56729;52.036;5.332;2023-03-01T03:26:41;-0.60;98.90
69533;DHT22;56729;52.036;5.332;2023-03-01T03:27:45;-0.60;99.00
69533;DHT22;56729;52.036;5.332;2023-03-01T03:28:47;-0.60;99.00
69533;DHT22;56729;52.036;5.332;2023-03-01T03:29:49;-0.60;99.10
69533;DHT22;56729;52.036;5.332;2023-03-01T03:30:50;-0.60;99.10
69533;DHT22;56729;52.036;5.332;2023-03-01T03:31:52;-0.60;99.10
69533;DHT22;56729;52.036;5.332;2023-03-01T03:32:55;-0.60;99.10
69533;DHT22;56729;52.036;5.332;2023-03-01T03:33:57;-0.60;99.10
69533;DHT22;56729;52.036;5.332;2023-03-01T03:35:00;-0.60;99.20
69533;DHT22;56729;52.036;5.332;2023-03-01T03:36:02;-0.60;99.30
69533;DHT22;56729;52.036;5.332;2023-03-01T03:37:04;-0.60;99.30
69533;DHT22;56729;52.036;5.332;2023-03-01T03:38:26;-0.60;99.30
69533;DHT22;56729;52.036;5.332;2023-03-01T03:39:28;-0.60;99.30
69533;DHT22;56729;52.036;5.332;2023-03-01T03:40:40;-0.60;99.30
69533;DHT22;56729;52.036;5.332;2023-03-01T03:41:42;-0.60;99.30
69533;DHT22;56729;52.036;5.332;2023-03-01T03:42:44;-0.60;99.40
69533;DHT22;56729;52.036;5.332;2023-03-01T03:43:46;-0.60;99.40
69533;DHT22;56729;52.036;5.332;2023-03-01T03:44:48;-0.60;99.50
69533;DHT22;56729;52.036;5.332;2023-03-01T03:45:51;-0.60;99.50
69533;DHT22;56729;52.036;5.332;2023-03-01T03:46:53;-0.60;99.60
69533;DHT22;56729;52.036;5.332;2023-03-01T03:47:54;-0.60;99.60
69533;DHT22;56729;52.036;5.332;2023-03-01T03:48:56;-0.60;99.60
69533;DHT22;56729;52.036;5.332;2023-03-01T03:49:59;-0.60;99.60
69533;DHT22;56729;52.036;5.332;2023-03-01T03:51:00;-0.60;99.70
69533;DHT22;56729;52.036;5.332;2023-03-01T03:52:02;-0.60;99.70
69533;DHT22;56729;52.036;5.332;2023-03-01T03:53:10;-0.60;99.80
69533;DHT22;56729;52.036;5.332;2023-03-01T03:54:12;-0.60;99.80
69533;DHT22;56729;52.036;5.332;2023-03-01T03:55:14;-0.60;99.90
69533;DHT22;56729;52.036;5.332;2023-03-01T03:56:20;-0.60;99.90
69533;DHT22;56729;52.036;5.332;2023-03-01T03:57:23;-0.60;99.90
69533;DHT22;56729;52.036;5.332;2023-03-01T03:58:25;-0.60;99.90
69533;DHT22;56729;52.036;5.332;2023-03-01T03:59:27;-0.60;99.90
69533;DHT22;56729;52.036;5.332;2023-03-01T04:00:29;-0.60;99.90
69533;DHT22;56729;52.036;5.332;2023-03-01T04:01:31;-0.60;99.90
69533;DHT22;56729;52.036;5.332;2023-03-01T04:02:33;-0.60;99.90
69533;DHT22;56729;52.036;5.332;2023-03-01T04:03:35;-0.60;99.90
69533;DHT22;56729;52.036;5.332;2023-03-01T04:04:36;-0.60;99.90
69533;DHT22;56729;52.036;5.332;2023-03-01T04:05:39;-0.60;99.90
69533;DHT22;56729;52.036;5.332;2023-03-01T04:06:41;-0.60;99.90
69533;DHT22;56729;52.036;5.332;2023-03-01T04:07:44;-0.60;99.90
69533;DHT22;56729;52.036;5.332;2023-03-01T04:08:46;-0.60;99.90
69533;DHT22;56729;52.036;5.332;2023-03-01T04:09:47;-0.60;99.90
69533;DHT22;56729;52.036;5.332;2023-03-01T04:10:52;-0.60;99.90
69533;DHT22;56729;52.036;5.332;2023-03-01T04:11:54;-0.60;99.90
69533;DHT22;56729;52.036;5.332;2023-03-01T04:12:56;-0.60;99.90
69533;DHT22;56729;52.036;5.332;2023-03-01T04:13:58;-0.60;99.90
69533;DHT22;56729;52.036;5.332;2023-03-01T04:15:03;-0.60;99.90
69533;DHT22;56729;52.036;5.332;2023-03-01T04:16:14;-0.60;99.90
69533;DHT22;56729;52.036;5.332;2023-03-01T04:17:16;-0.60;99.90
69533;DHT22;56729;52.036;5.332;2023-03-01T04:18:19;-0.60;99.90
69533;DHT22;56729;52.036;5.332;2023-03-01T04:19:22;-0.60;99.90
69533;DHT22;56729;52.036;5.332;2023-03-01T04:20:26;-0.60;99.90
69533;DHT22;56729;52.036;5.332;2023-03-01T04:21:30;-0.70;99.90
69533;DHT22;56729;52.036;5.332;2023-03-01T04:22:31;-0.60;99.90
69533;DHT22;56729;52.036;5.332;2023-03-01T04:23:35;-0.70;99.90
69533;DHT22;56729;52.036;5.332;2023-03-01T04:24:37;-0.70;99.90
69533;DHT22;56729;52.036;5.332;2023-03-01T04:26:56;-0.70;99.90
69533;DHT22;56729;52.036;5.332;2023-03-01T04:27:58;-0.70;99.90
69533;DHT22;56729;52.036;5.332;2023-03-01T04:29:00;-0.70;99.90
69533;DHT22;56729;52.036;5.332;2023-03-01T04:30:03;-0.70;99.90
69533;DHT22;56729;52.036;5.332;2023-03-01T04:31:13;-0.70;99.90
69533;DHT22;56729;52.036;5.332;2023-03-01T04:32:17;-0.70;99.90
69533;DHT22;56729;52.036;5.332;2023-03-01T04:33:20;-0.70;99.90
69533;DHT22;56729;52.036;5.332;2023-03-01T04:34:22;-0.70;99.90
69533;DHT22;56729;52.036;5.332;2023-03-01T04:35:24;-0.70;99.90
69533;DHT22;56729;52.036;5.332;2023-03-01T04:36:29;-0.70;99.90
69533;DHT22;56729;52.036;5.332;2023-03-01T04:37:32;-0.70;99.90
69533;DHT22;56729;52.036;5.332;2023-03-01T04:38:36;-0.80;99.90
69533;DHT22;56729;52.036;5.332;2023-03-01T04:39:40;-0.80;99.90
69533;DHT22;56729;52.036;5.332;2023-03-01T04:40:47;-0.80;99.90
69533;DHT22;56729;52.036;5.332;2023-03-01T04:41:49;-0.80;99.90
69533;DHT22;56729;52.036;5.332;2023-03-01T04:42:51;-0.80;99.90
69533;DHT22;56729;52.036;5.332;2023-03-01T04:43:53;-0.80;99.90
69533;DHT22;56729;52.036;5.332;2023-03-01T04:44:55;-0.80;99.90
69533;DHT22;56729;52.036;5.332;2023-03-01T04:46:01;-0.80;99.90
69533;DHT22;56729;52.036;5.332;2023-03-01T04:47:04;-0.80;99.90
69533;DHT22;56729;52.036;5.332;2023-03-01T04:48:06;-0.80;99.90
69533;DHT22;56729;52.036;5.332;2023-03-01T04:49:08;-0.80;99.90
69533;DHT22;56729;52.036;5.332;2023-03-01T04:50:11;-0.80;99.90
69533;DHT22;56729;52.036;5.332;2023-03-01T04:51:13;-0.80;99.90
69533;DHT22;56729;52.036;5.332;2023-03-01T04:52:15;-0.80;99.90
69533;DHT22;56729;52.036;5.332;2023-03-01T04:53:17;-0.80;99.90
69533;DHT22;56729;52.036;5.332;2023-03-01T04:54:20;-0.80;99.90
69533;DHT22;56729;52.036;5.332;2023-03-01T04:55:22;-0.80;99.90
69533;DHT22;56729;52.036;5.332;2023-03-01T04:56:23;-0.80;99.90
69533;DHT22;56729;52.036;5.332;2023-03-01T04:57:25;-0.80;99.90
69533;DHT22;56729;52.036;5.332;2023-03-01T04:58:28;-0.80;99.90
69533;DHT22;56729;52.036;5.332;2023-03-01T04:59:30;-0.80;99.90
69533;DHT22;56729;52.036;5.332;2023-03-01T05:00:31;-0.80;99.90
69533;DHT22;56729;52.036;5.332;2023-03-01T05:01:33;-0.80;99.90
69533;DHT22;56729;52.036;5.332;2023-03-01T05:02:36;-0.80;99.90
69533;DHT22;56729;52.036;5.332;2023-03-01T05:03:38;-0.80;99.90
69533;DHT22;56729;52.036;5.332;2023-03-01T05:04:43;-0.80;99.90
69533;DHT22;56729;52.036;5.332;2023-03-01T05:05:47;-0.80;99.90
69533;DHT22;56729;52.036;5.332;2023-03-01T05:06:49;-0.80;99.90
69533;DHT22;56729;52.036;5.332;2023-03-01T05:07:57;-0.80;99.90
69533;DHT22;56729;52.036;5.332;2023-03-01T05:08:59;-0.80;99.90
69533;DHT22;56729;52.036;5.332;2023-03-01T05:10:01;-0.80;99.90
69533;DHT22;56729;52.036;5.332;2023-03-01T05:11:03;-0.90;99.90
69533;DHT22;56729;52.036;5.332;2023-03-01T05:12:05;-0.90;99.90
69533;DHT22;56729;52.036;5.332;2023-03-01T05:13:07;-0.90;99.90
69533;DHT22;56729;52.036;5.332;2023-03-01T05:14:09;-0.90;99.90
69533;DHT22;56729;52.036;5.332;2023-03-01T05:15:12;-0.90;99.90
69533;DHT22;56729;52.036;5.332;2023-03-01T05:16:14;-0.90;99.90
69533;DHT22;56729;52.036;5.332;2023-03-01T05:17:16;-0.90;99.90
69533;DHT22;56729;52.036;5.332;2023-03-01T05:18:17;-0.90;99.90
69533;DHT22;56729;52.036;5.332;2023-03-01T05:19:19;-0.90;99.90
69533;DHT22;56729;52.036;5.332;2023-03-01T05:20:25;-0.90;99.90
69533;DHT22;56729;52.036;5.332;2023-03-01T05:21:27;-0.90;99.90
69533;DHT22;56729;52.036;5.332;2023-03-01T05:22:29;-0.90;99.90
69533;DHT22;56729;52.036;5.332;2023-03-01T05:23:32;-0.90;99.90
69533;DHT22;56729;52.036;5.332;2023-03-01T05:24:35;-0.90;99.90
69533;DHT22;56729;52.036;5.332;2023-03-01T05:25:37;-0.90;99.90
69533;DHT22;56729;52.036;5.332;2023-03-01T05:26:41;-0.90;99.90
69533;DHT22;56729;52.036;5.332;2023-03-01T05:27:44;-0.90;99.90
69533;DHT22;56729;52.036;5.332;2023-03-01T05:28:46;-0.90;99.90
69533;DHT22;56729;52.036;5.332;2023-03-01T05:29:48;-0.90;99.90
69533;DHT22;56729;52.036;5.332;2023-03-01T05:30:50;-0.90;99.90
69533;DHT22;56729;52.036;5.332;2023-03-01T05:31:58;-0.90;99.90
69533;DHT22;56729;52.036;5.332;2023-03-01T05:33:03;-0.90;99.90
69533;DHT22;56729;52.036;5.332;2023-03-01T05:34:05;-0.90;99.90
69533;DHT22;56729;52.036;5.332;2023-03-01T05:35:08;-0.90;99.90
69533;DHT22;56729;52.036;5.332;2023-03-01T05:36:10;-0.90;99.90
69533;DHT22;56729;52.036;5.332;2023-03-01T05:37:12;-0.90;99.90
69533;DHT22;56729;52.036;5.332;2023-03-01T05:38:15;-0.90;99.90
69533;DHT22;56729;52.036;5.332;2023-03-01T05:39:17;-0.90;99.90
69533;DHT22;56729;52.036;5.332;2023-03-01T05:40:22;-0.90;99.90
69533;DHT22;56729;52.036;5.332;2023-03-01T05:41:25;-0.90;99.90
69533;DHT22;56729;52.036;5.332;2023-03-01T05:42:27;-0.90;99.90
69533;DHT22;56729;52.036;5.332;2023-03-01T05:43:32;-0.90;99.90
69533;DHT22;56729;52.036;5.332;2023-03-01T05:44:37;-1.00;99.90
69533;DHT22;56729;52.036;5.332;2023-03-01T05:45:39;-0.90;99.90
69533;DHT22;56729;52.036;5.332;2023-03-01T05:46:42;-1.00;99.90
69533;DHT22;56729;52.036;5.332;2023-03-01T05:47:47;-1.00;99.90
69533;DHT22;56729;52.036;5.332;2023-03-01T05:48:49;-1.00;99.90
69533;DHT22;56729;52.036;5.332;2023-03-01T05:49:51;-1.00;99.90
69533;DHT22;56729;52.036;5.332;2023-03-01T05:50:53;-1.00;99.90
69533;DHT22;56729;52.036;5.332;2023-03-01T05:51:54;-1.00;99.90
69533;DHT22;56729;52.036;5.332;2023-03-01T05:53:04;-1.00;99.90
69533;DHT22;56729;52.036;5.332;2023-03-01T05:54:07;-1.00;99.90
69533;DHT22;56729;52.036;5.332;2023-03-01T05:55:09;-1.00;99.90
69533;DHT22;56729;52.036;5.332;2023-03-01T05:56:11;-1.00;99.90
69533;DHT22;56729;52.036;5.332;2023-03-01T05:57:13;-1.10;99.90
69533;DHT22;56729;52.036;5.332;2023-03-01T05:58:17;-1.00;99.90
69533;DHT22;56729;52.036;5.332;2023-03-01T05:59:19;-1.00;99.90
69533;DHT22;56729;52.036;5.332;2023-03-01T06:00:21;-1.10;99.90
69533;DHT22;56729;52.036;5.332;2023-03-01T06:01:26;-1.10;99.90
69533;DHT22;56729;52.036;5.332;2023-03-01T06:02:28;-1.10;99.90
69533;DHT22;56729;52.036;5.332;2023-03-01T06:03:30;-1.10;99.90
69533;DHT22;56729;52.036;5.332;2023-03-01T06:04:32;-1.10;99.90
69533;DHT22;56729;52.036;5.332;2023-03-01T06:05:34;-1.10;99.90
69533;DHT22;56729;52.036;5.332;2023-03-01T06:06:37;-1.10;99.90
69533;DHT22;56729;52.036;5.332;2023-03-01T06:07:40;-1.10;99.90
69533;DHT22;56729;52.036;5.332;2023-03-01T06:08:41;-1.10;99.90
69533;DHT22;56729;52.036;5.332;2023-03-01T06:09:43;-1.10;99.90
69533;DHT22;56729;52.036;5.332;2023-03-01T06:10:46;-1.10;99.90
69533;DHT22;56729;52.036;5.332;2023-03-01T06:11:49;-1.10;99.90
69533;DHT22;56729;52.036;5.332;2023-03-01T06:12:51;-1.10;99.90
69533;DHT22;56729;52.036;5.332;2023-03-01T06:13:53;-1.10;99.90
69533;DHT22;56729;52.036;5.332;2023-03-01T06:14:55;-1.10;99.90
69533;DHT22;56729;52.036;5.332;2023-03-01T06:15:57;-1.10;99.90
69533;DHT22;56729;52.036;5.332;2023-03-01T06:16:59;-1.10;99.90
69533;DHT22;56729;52.036;5.332;2023-03-01T06:18:01;-1.10;99.90
69533;DHT22;56729;52.036;5.332;2023-03-01T06:19:03;-1.10;99.90
69533;DHT22;56729;52.036;5.332;2023-03-01T06:20:09;-1.10;99.90
69533;DHT22;56729;52.036;5.332;2023-03-01T06:21:11;-1.10;99.90
69533;DHT22;56729;52.036;5.332;2023-03-01T06:22:13;-1.10;99.90
69533;DHT22;56729;52.036;5.332;2023-03-01T06:23:15;-1.10;99.90
69533;DHT22;56729;52.036;5.332;2023-03-01T06:24:17;-1.10;99.90
69533;DHT22;56729;52.036;5.332;2023-03-01T06:25:22;-1.10;99.90
69533;DHT22;56729;52.036;5.332;2023-03-01T06:26:24;-1.10;99.90
69533;DHT22;56729;52.036;5.332;2023-03-01T06:27:27;-1.10;99.90
69533;DHT22;56729;52.036;5.332;2023-03-01T06:28:30;-1.10;99.90
69533;DHT22;56729;52.036;5.332;2023-03-01T06:29:33;-1.10;99.90
69533;DHT22;56729;52.036;5.332;2023-03-01T06:30:35;-1.10;99.90
69533;DHT22;56729;52.036;5.332;2023-03-01T06:31:37;-1.10;99.90
69533;DHT22;56729;52.036;5.332;2023-03-01T06:32:41;-1.10;99.90
69533;DHT22;56729;52.036;5.332;2023-03-01T06:33:45;-1.10;99.90
69533;DHT22;56729;52.036;5.332;2023-03-01T06:34:49;-1.10;99.90
69533;DHT22;56729;52.036;5.332;2023-03-01T06:35:51;-1.10;99.90
69533;DHT22;56729;52.036;5.332;2023-03-01T06:36:58;-1.10;99.90
69533;DHT22;56729;52.036;5.332;2023-03-01T06:38:01;-1.10;99.90
69533;DHT22;56729;52.036;5.332;2023-03-01T06:39:04;-1.10;99.90
69533;DHT22;56729;52.036;5.332;2023-03-01T06:40:07;-1.10;99.90
69533;DHT22;56729;52.036;5.332;2023-03-01T06:41:14;-1.10;99.90
69533;DHT22;56729;52.036;5.332;2023-03-01T06:42:16;-1.10;99.90
69533;DHT22;56729;52.036;5.332;2023-03-01T06:43:18;-1.10;99.90
69533;DHT22;56729;52.036;5.332;2023-03-01T06:44:20;-1.10;99.90
69533;DHT22;56729;52.036;5.332;2023-03-01T06:45:21;-1.10;99.90
69533;DHT22;56729;52.036;5.332;2023-03-01T06:46:23;-1.10;99.90
69533;DHT22;56729;52.036;5.332;2023-03-01T06:47:25;-1.10;99.90
69533;DHT22;56729;52.036;5.332;2023-03-01T06:48:27;-1.10;99.90
69533;DHT22;56729;52.036;5.332;2023-03-01T06:49:29;-1.10;99.90